createdAt,value
2019-04-16T04:55:36.426Z,10.93
2019-04-16T04:58:07.412Z,10.72
2019-04-16T05:00:40.520Z,11.40
2019-04-16T05:03:12.494Z,10.98
2019-04-16T05:05:45.563Z,12.15
2019-04-16T05:08:16.256Z,9.37
2019-04-16T05:10:58.391Z,10.38
2019-04-16T05:13:23.925Z,12.25
2019-04-16T05:15:51.569Z,10.43
2019-04-16T05:18:22.133Z,10.98
2019-04-16T05:20:53.100Z,9.30
2019-04-16T05:23:26.074Z,10.32
2019-04-16T05:25:57.537Z,9.30
2019-04-16T05:28:28.442Z,15.80
2019-04-16T05:30:59.366Z,9.10
2019-04-16T05:33:30.337Z,11.68
2019-04-16T05:36:00.962Z,9.63
2019-04-16T05:38:32.224Z,16.35
2019-04-16T05:41:13.101Z,9.85
2019-04-16T05:43:35.197Z,11.67
2019-04-16T05:46:08.724Z,9.40
2019-04-16T05:48:39.605Z,13.20
2019-04-16T05:51:10.563Z,14.00
2019-04-16T05:53:42.583Z,10.15
2019-04-16T05:56:14.942Z,9.43
2019-04-16T05:58:45.863Z,10.78
2019-04-16T06:01:18.231Z,13.60
2019-04-16T06:03:52.997Z,12.03
2019-04-16T06:06:22.217Z,13.10
2019-04-16T06:08:56.026Z,12.50
2019-04-16T06:11:29.196Z,10.70
2019-04-16T06:14:01.869Z,11.57
2019-04-16T06:16:34.262Z,11.20
2019-04-16T06:19:08.487Z,12.90
2019-04-16T06:21:40.117Z,11.95
2019-04-16T06:24:12.398Z,11.78
2019-04-16T06:26:47.508Z,13.03
2019-04-16T06:29:18.230Z,12.60
2019-04-16T06:31:50.296Z,13.58
2019-04-16T06:34:24.336Z,11.43
2019-04-16T06:36:56.385Z,11.90
2019-04-16T06:39:30.017Z,11.63
2019-04-16T06:42:02.583Z,11.30
2019-04-16T06:44:35.072Z,11.88
2019-04-16T06:47:10.827Z,11.85
2019-04-16T06:49:40.030Z,12.63
2019-04-16T06:52:15.809Z,14.93
2019-04-16T06:54:45.462Z,14.65
2019-04-16T06:57:17.585Z,11.95
2019-04-16T06:59:49.923Z,12.57
2019-04-16T07:02:24.383Z,12.33
2019-04-16T07:04:55.030Z,16.80
2019-04-16T07:07:38.559Z,14.50
2019-04-16T07:10:00.939Z,11.35
2019-04-16T07:12:32.032Z,11.57
2019-04-16T07:15:02.876Z,11.90
2019-04-16T07:17:34.505Z,12.85
2019-04-16T07:20:06.936Z,11.68
2019-04-16T07:22:39.031Z,11.68
2019-04-16T07:25:10.452Z,11.18
2019-04-16T07:27:42.756Z,11.08
2019-04-16T07:30:20.029Z,11.68
2019-04-16T07:32:50.188Z,11.55
2019-04-16T07:35:22.692Z,11.50
2019-04-16T07:37:56.311Z,13.00
2019-04-16T07:40:40.904Z,18.40
2019-04-16T07:43:15.755Z,16.62
2019-04-16T07:45:46.821Z,15.08
2019-04-16T07:48:22.777Z,17.60
2019-04-16T07:50:53.323Z,12.78
2019-04-16T07:53:28.273Z,11.00
2019-04-16T07:56:00.698Z,10.82
2019-04-16T07:58:31.604Z,22.55
2019-04-16T08:01:02.467Z,11.53
2019-04-16T08:03:33.665Z,11.88
2019-04-16T08:06:04.617Z,13.22
2019-04-16T08:08:35.710Z,13.08
2019-04-16T08:11:06.539Z,42.80
2019-04-16T08:13:38.859Z,12.30
2019-04-16T08:16:09.886Z,12.10
2019-04-16T08:18:42.130Z,14.65
2019-04-16T08:21:12.849Z,12.75
2019-04-16T08:23:45.037Z,13.83
2019-04-16T08:26:16.281Z,13.20
2019-04-16T08:28:48.149Z,12.68
2019-04-16T08:31:20.370Z,13.70
2019-04-16T08:33:51.175Z,12.33
2019-04-16T08:36:22.307Z,22.37
2019-04-16T08:38:53.451Z,12.45
2019-04-16T08:41:24.700Z,12.63
2019-04-16T08:43:55.668Z,11.30
2019-04-16T08:46:28.158Z,12.20
2019-04-16T08:48:59.840Z,11.10
2019-04-16T08:51:34.388Z,11.88
2019-04-16T08:54:02.975Z,10.95
2019-04-16T08:56:34.419Z,11.18
2019-04-16T08:59:09.480Z,12.73
2019-04-16T09:01:37.647Z,10.82
2019-04-16T09:04:08.519Z,28.27
2019-04-16T09:06:42.589Z,12.33
2019-04-16T09:09:18.300Z,13.40
2019-04-16T09:11:48.598Z,14.23
2019-04-16T09:14:20.868Z,12.30
2019-04-16T09:16:52.016Z,14.00
2019-04-16T09:19:24.140Z,12.07
2019-04-16T09:21:55.250Z,12.68
2019-04-16T09:24:27.622Z,13.95
2019-04-16T09:27:00.012Z,11.28
2019-04-16T09:29:32.290Z,12.10
2019-04-16T09:32:03.081Z,11.97
2019-04-16T09:34:40.339Z,12.33
2019-04-16T09:37:12.649Z,12.37
2019-04-16T09:39:45.106Z,11.43
2019-04-16T09:42:16.085Z,12.47
2019-04-16T09:44:47.181Z,10.95
2019-04-16T09:47:18.532Z,11.68
2019-04-16T09:49:49.513Z,11.35
2019-04-16T09:52:23.010Z,12.15
2019-04-16T09:54:52.594Z,10.50
2019-04-16T09:57:30.881Z,13.05
2019-04-16T10:00:00.126Z,11.53
2019-04-16T10:02:32.423Z,13.62
2019-04-16T10:05:03.521Z,12.95
2019-04-16T10:07:37.456Z,16.15
2019-04-16T10:10:07.972Z,15.58
2019-04-16T10:12:39.149Z,12.00
2019-04-16T10:15:10.570Z,12.60
2019-04-16T10:17:41.422Z,14.65
2019-04-16T10:20:12.777Z,13.20
2019-04-16T10:22:43.530Z,12.55
2019-04-16T10:25:17.879Z,11.60
2019-04-16T10:27:50.042Z,17.52
2019-04-16T10:30:22.605Z,12.73
2019-04-16T10:32:53.704Z,15.48
2019-04-16T10:35:24.662Z,11.95
2019-04-16T10:37:55.792Z,12.15
2019-04-16T10:40:28.053Z,12.88
2019-04-16T10:43:00.636Z,9.93
2019-04-16T10:45:32.849Z,10.38
2019-04-16T10:48:05.844Z,11.43
2019-04-16T10:53:09.939Z,11.18
2019-04-16T10:55:41.411Z,11.18
2019-04-16T10:58:13.430Z,14.45
2019-04-16T11:00:45.866Z,14.03
2019-04-16T11:03:18.156Z,12.18
2019-04-16T11:05:50.453Z,13.05
2019-04-16T11:08:21.687Z,16.57
2019-04-16T11:10:52.531Z,16.07
2019-04-16T11:13:25.102Z,14.75
2019-04-16T11:15:57.770Z,13.00
2019-04-16T11:18:28.812Z,14.25
2019-04-16T11:20:59.690Z,15.30
2019-04-16T11:23:31.338Z,12.43
2019-04-16T11:26:02.709Z,13.48
2019-04-16T11:28:33.549Z,12.70
2019-04-16T11:31:06.121Z,20.60
2019-04-16T11:33:36.711Z,19.65
2019-04-16T11:36:18.932Z,13.90
2019-04-16T11:38:39.950Z,17.45
2019-04-16T11:41:11.213Z,14.80
2019-04-16T11:43:42.033Z,13.72
2019-04-16T11:46:13.068Z,13.80
2019-04-16T11:48:44.068Z,16.48
2019-04-16T11:51:15.096Z,14.43
2019-04-16T11:53:46.248Z,19.10
2019-04-16T11:56:17.301Z,13.93
2019-04-16T11:58:48.292Z,13.75
2019-04-16T12:01:23.011Z,12.58
2019-04-16T12:03:56.328Z,18.75
2019-04-16T12:06:28.861Z,14.95
2019-04-16T12:08:59.755Z,15.00
2019-04-16T12:11:31.956Z,14.05
2019-04-16T12:14:08.689Z,15.97
2019-04-16T12:16:38.215Z,14.38
2019-04-16T12:19:10.567Z,14.23
2019-04-16T12:21:42.756Z,19.80
2019-04-16T12:24:18.416Z,18.75
2019-04-16T12:26:48.642Z,19.42
2019-04-16T12:29:23.137Z,22.17
2019-04-16T12:31:54.695Z,23.73
2019-04-16T12:34:26.841Z,22.65
2019-04-16T12:36:59.614Z,18.05
2019-04-16T12:39:35.565Z,17.90
2019-04-16T12:42:06.292Z,26.10
2019-04-16T12:44:45.513Z,24.32
2019-04-16T12:47:13.417Z,25.55
2019-04-16T12:49:45.621Z,16.70
2019-04-16T12:52:17.816Z,17.25
2019-04-16T12:54:58.334Z,13.50
2019-04-16T12:57:26.321Z,15.50
2019-04-16T12:59:58.714Z,13.68
2019-04-16T13:02:31.561Z,19.48
2019-04-16T13:05:04.886Z,21.20
2019-04-16T13:07:39.042Z,15.48
2019-04-16T13:10:11.583Z,14.73
2019-04-16T13:12:43.778Z,13.35
2019-04-16T13:15:16.488Z,15.30
2019-04-16T13:17:50.828Z,14.93
2019-04-16T13:20:22.188Z,14.13
2019-04-16T13:22:54.372Z,16.07
2019-04-16T13:25:27.008Z,16.27
2019-04-16T13:27:58.419Z,15.70
2019-04-16T13:30:29.483Z,17.87
2019-04-16T13:33:00.355Z,15.35
2019-04-16T13:35:31.126Z,16.93
2019-04-16T13:38:02.393Z,18.77
2019-04-16T13:40:33.608Z,15.85
2019-04-16T13:43:06.674Z,14.05
2019-04-16T13:45:40.015Z,17.62
2019-04-16T13:48:16.584Z,14.05
2019-04-16T13:50:46.396Z,20.45
2019-04-16T13:53:18.371Z,13.65
2019-04-16T13:55:50.666Z,12.68
2019-04-16T13:58:22.741Z,10.90
2019-04-16T14:00:54.881Z,14.70
2019-04-16T14:03:25.843Z,12.65
2019-04-16T14:05:56.793Z,10.98
2019-04-16T14:08:27.858Z,13.38
2019-04-16T14:10:59.295Z,10.25
2019-04-16T14:13:30.052Z,17.65
2019-04-16T14:16:00.850Z,14.10
2019-04-16T14:18:32.760Z,10.78
2019-04-16T14:21:04.186Z,11.30
2019-04-16T14:23:35.037Z,12.80
2019-04-16T14:26:06.771Z,13.40
2019-04-16T14:28:51.258Z,12.78
2019-04-16T14:31:09.736Z,12.23
2019-04-16T14:33:42.219Z,20.08
2019-04-16T14:36:14.379Z,16.70
2019-04-16T14:38:47.086Z,13.45
2019-04-16T14:41:19.666Z,14.38
2019-04-16T14:43:52.567Z,19.05
2019-04-16T14:46:28.254Z,19.25
2019-04-16T14:48:56.051Z,15.28
2019-04-16T14:51:27.415Z,16.37
2019-04-16T14:53:59.936Z,16.45
2019-04-16T14:56:32.231Z,12.45
2019-04-16T14:59:04.517Z,13.53
2019-04-16T15:01:37.334Z,18.00
2019-04-16T15:04:10.392Z,13.80
2019-04-16T15:06:42.677Z,19.35
2019-04-16T15:09:15.581Z,15.80
2019-04-16T15:11:47.922Z,13.48
2019-04-16T15:14:23.473Z,17.67
2019-04-16T15:16:52.592Z,19.52
2019-04-16T15:19:25.076Z,13.75
2019-04-16T15:21:57.735Z,22.20
2019-04-16T15:24:30.044Z,18.32
2019-04-16T15:27:02.268Z,13.50
2019-04-16T15:29:35.197Z,18.17
2019-04-16T15:32:07.711Z,15.35
2019-04-16T15:34:43.033Z,14.03
2019-04-16T15:37:13.794Z,16.80
2019-04-16T15:39:47.031Z,14.13
2019-04-16T15:44:52.728Z,14.30
2019-04-16T15:47:22.829Z,25.70
2019-04-16T15:49:55.937Z,18.00
2019-04-16T15:52:27.455Z,12.33
2019-04-16T15:55:00.017Z,14.45
2019-04-16T15:57:32.542Z,18.48
2019-04-16T16:00:04.984Z,16.10
2019-04-16T16:02:37.662Z,13.93
2019-04-16T16:05:10.637Z,15.05
2019-04-16T16:07:42.919Z,16.00
2019-04-16T16:10:15.239Z,14.93
2019-04-16T16:12:46.608Z,16.35
2019-04-16T16:15:17.906Z,16.87
2019-04-16T16:17:48.806Z,15.13
2019-04-16T16:20:20.338Z,16.02
2019-04-16T16:22:51.290Z,15.58
2019-04-16T16:25:22.570Z,15.20
2019-04-16T16:27:54.184Z,14.25
2019-04-16T16:30:25.399Z,15.75
2019-04-16T16:32:56.779Z,13.45
2019-04-16T16:35:27.819Z,15.23
2019-04-16T16:37:59.237Z,18.05
2019-04-16T16:40:30.436Z,14.38
2019-04-16T16:43:06.940Z,13.65
2019-04-16T16:45:35.422Z,14.80
2019-04-16T16:48:06.584Z,15.10
2019-04-16T16:50:37.354Z,16.67
2019-04-16T16:53:10.412Z,16.85
2019-04-16T16:55:42.393Z,15.60
2019-04-16T16:58:17.909Z,16.17
2019-04-16T17:00:48.585Z,21.00
2019-04-16T17:03:19.944Z,19.75
2019-04-16T17:05:52.235Z,15.43
2019-04-16T17:08:23.202Z,15.85
2019-04-16T17:10:54.121Z,17.50
2019-04-16T17:13:24.895Z,16.62
2019-04-16T17:15:55.788Z,18.37
2019-04-16T17:18:26.808Z,17.70
2019-04-16T17:21:00.989Z,16.50
2019-04-16T17:23:31.862Z,15.45
2019-04-16T17:26:02.812Z,13.68
2019-04-16T17:28:33.825Z,14.43
2019-04-16T17:31:04.549Z,15.43
2019-04-16T17:33:35.342Z,17.07
2019-04-16T17:36:06.746Z,14.20
2019-04-16T17:38:37.778Z,16.10
2019-04-16T17:41:10.075Z,15.08
2019-04-16T17:43:42.536Z,20.05
2019-04-16T17:46:14.658Z,18.47
2019-04-16T17:48:46.938Z,22.50
2019-04-16T17:51:17.643Z,30.55
2019-04-16T17:53:49.869Z,24.47
2019-04-16T17:56:22.153Z,25.43
2019-04-16T17:58:54.313Z,26.82
2019-04-16T18:01:26.580Z,27.35
2019-04-16T18:03:59.108Z,25.55
2019-04-16T18:06:31.512Z,22.48
2019-04-16T18:09:01.886Z,26.50
2019-04-16T18:11:34.277Z,23.55
2019-04-16T18:14:10.770Z,24.25
2019-04-16T18:16:40.329Z,22.90
2019-04-16T18:19:11.081Z,23.63
2019-04-16T18:21:42.035Z,23.90
2019-04-16T18:24:14.199Z,23.50
2019-04-16T18:26:46.420Z,22.27
2019-04-16T18:29:18.808Z,23.38
2019-04-16T18:31:52.499Z,24.03
2019-04-16T18:34:24.523Z,21.90
2019-04-16T18:36:56.707Z,24.20
2019-04-16T18:39:29.089Z,21.68
2019-04-16T18:42:01.830Z,23.32
2019-04-16T18:44:32.278Z,72.37
2019-04-16T18:47:05.483Z,27.15
2019-04-16T18:49:38.414Z,21.70
2019-04-16T18:52:09.280Z,26.33
2019-04-16T18:54:40.478Z,20.10
2019-04-16T18:57:11.554Z,21.20
2019-04-16T18:59:42.492Z,22.15
2019-04-16T19:02:13.200Z,20.65
2019-04-16T19:04:44.339Z,18.62
2019-04-16T19:07:15.252Z,18.82
2019-04-16T19:09:45.921Z,20.40
2019-04-16T19:12:16.858Z,20.88
2019-04-16T19:14:47.824Z,20.17
2019-04-16T19:17:18.430Z,20.77
2019-04-16T19:19:49.249Z,20.23
2019-04-16T19:22:20.050Z,20.02
2019-04-16T19:24:50.863Z,20.43
2019-04-16T19:27:21.854Z,24.40
2019-04-16T19:29:52.755Z,21.27
2019-04-16T19:32:24.752Z,21.10
2019-04-16T19:35:08.194Z,22.13
2019-04-16T19:37:29.764Z,20.77
2019-04-16T19:40:00.504Z,21.45
2019-04-16T19:42:31.526Z,21.57
2019-04-16T19:45:02.461Z,20.20
2019-04-16T19:47:35.262Z,20.68
2019-04-16T19:50:07.336Z,21.90
2019-04-16T19:52:38.303Z,22.35
2019-04-16T19:55:12.465Z,21.12
2019-04-16T19:57:42.566Z,20.37
2019-04-16T20:00:13.745Z,21.02
2019-04-16T20:02:44.530Z,21.10
2019-04-16T20:05:18.498Z,20.88
2019-04-16T20:07:48.260Z,19.75
2019-04-16T20:10:18.945Z,21.40
2019-04-16T20:12:49.775Z,20.17
2019-04-16T20:15:20.896Z,19.65
2019-04-16T20:17:51.836Z,22.48
2019-04-16T20:20:23.000Z,19.92
2019-04-16T20:22:53.701Z,22.25
2019-04-16T20:25:24.593Z,22.37
2019-04-16T20:27:55.605Z,22.70
2019-04-16T20:30:26.620Z,20.85
2019-04-16T20:32:57.511Z,20.55
2019-04-16T20:35:28.830Z,22.73
2019-04-16T20:37:59.590Z,20.90
2019-04-16T20:40:30.379Z,20.37
2019-04-16T20:43:02.617Z,44.70
2019-04-16T20:45:33.467Z,23.87
2019-04-16T20:48:04.640Z,22.17
2019-04-16T20:50:35.780Z,21.90
2019-04-16T20:53:08.368Z,19.50
2019-04-16T20:55:38.801Z,21.45
2019-04-16T20:58:10.020Z,19.32
2019-04-16T21:00:42.473Z,20.45
2019-04-16T21:03:21.903Z,19.75
2019-04-16T21:05:57.856Z,21.17
2019-04-16T21:08:24.386Z,20.75
2019-04-16T21:10:50.932Z,19.92
2019-04-16T21:13:21.634Z,19.30
2019-04-16T21:15:52.928Z,19.85
2019-04-16T21:18:23.721Z,21.05
2019-04-16T21:20:54.553Z,20.80
2019-04-16T21:23:25.273Z,19.62
2019-04-16T21:25:56.245Z,19.75
2019-04-16T21:28:28.358Z,19.12
2019-04-16T21:31:00.642Z,19.37
2019-04-16T21:33:32.866Z,19.55
2019-04-16T21:36:05.586Z,20.90
2019-04-16T21:38:37.719Z,19.60
2019-04-16T21:41:08.553Z,21.50
2019-04-16T21:43:40.329Z,20.35
2019-04-16T21:46:11.621Z,20.40
2019-04-16T21:48:42.357Z,21.57
2019-04-16T21:51:13.458Z,19.25
2019-04-16T21:53:44.287Z,19.50
2019-04-16T21:56:14.987Z,20.62
2019-04-16T21:58:46.608Z,19.52
2019-04-16T22:01:19.185Z,19.42
2019-04-16T22:03:51.647Z,19.15
2019-04-16T22:06:22.768Z,21.35
2019-04-16T22:08:53.892Z,19.98
2019-04-16T22:11:24.721Z,17.32
2019-04-16T22:13:55.754Z,18.75
2019-04-16T22:16:29.724Z,21.65
2019-04-16T22:18:58.931Z,20.97
2019-04-16T22:21:30.111Z,21.17
2019-04-16T22:24:00.971Z,21.60
2019-04-16T22:26:34.166Z,18.27
2019-04-16T22:29:03.934Z,19.10
2019-04-16T22:31:34.922Z,19.27
2019-04-16T22:34:05.921Z,19.45
2019-04-16T22:36:37.052Z,21.15
2019-04-16T22:39:10.272Z,21.80
2019-04-16T22:41:42.622Z,22.25
2019-04-16T22:44:14.995Z,23.87
2019-04-16T22:46:46.986Z,22.05
2019-04-16T22:49:18.579Z,25.05
2019-04-16T22:51:49.966Z,20.92
2019-04-16T22:54:21.572Z,23.12
2019-04-16T22:56:53.862Z,27.17
2019-04-16T22:59:25.027Z,24.70
2019-04-16T23:01:56.326Z,24.20
2019-04-16T23:04:27.492Z,26.82
2019-04-16T23:06:58.601Z,25.72
2019-04-16T23:09:30.650Z,24.35
2019-04-16T23:12:03.990Z,23.32
2019-04-16T23:14:38.635Z,24.92
2019-04-16T23:17:13.175Z,26.33
2019-04-16T23:19:41.731Z,25.88
2019-04-16T23:22:15.261Z,37.08
2019-04-16T23:24:44.829Z,24.70
2019-04-16T23:27:15.816Z,23.70
2019-04-16T23:29:47.540Z,24.05
2019-04-16T23:32:19.065Z,23.65
2019-04-16T23:34:53.080Z,24.18
2019-04-16T23:37:24.312Z,26.97
2019-04-16T23:39:55.471Z,23.83
2019-04-16T23:42:26.058Z,23.10
2019-04-16T23:45:00.173Z,24.18
2019-04-16T23:47:31.362Z,23.20
2019-04-16T23:50:03.692Z,27.10
2019-04-16T23:52:35.886Z,23.05
2019-04-16T23:55:08.908Z,23.55
2019-04-16T23:57:41.094Z,21.73
